createdAt,value
2023-01-21T00:01:41.335Z,58.22
2023-01-21T00:04:13.054Z,58.52
2023-01-21T00:06:58.922Z,58.88
2023-01-21T00:09:26.843Z,58.58
2023-01-21T00:11:54.808Z,59.24
2023-01-21T00:14:25.649Z,60.91
2023-01-21T00:16:56.306Z,60.08
2023-01-21T00:19:24.613Z,61.61
2023-01-21T00:21:54.502Z,60.82
2023-01-21T00:24:22.792Z,59.69
2023-01-21T00:26:53.807Z,59.42
2023-01-21T00:29:22.249Z,59.78
2023-01-21T00:31:51.877Z,60.40
2023-01-21T00:34:22.461Z,60.49
2023-01-21T00:36:50.284Z,60.87
2023-01-21T00:39:22.160Z,60.37
2023-01-21T00:41:53.148Z,59.71
2023-01-21T00:44:21.202Z,60.62
2023-01-21T00:46:51.964Z,61.13
2023-01-21T00:49:24.165Z,60.42
2023-01-21T00:51:52.265Z,59.94
2023-01-21T00:54:20.346Z,60.84
2023-01-21T00:56:50.250Z,61.63
2023-01-21T00:59:19.258Z,60.86
2023-01-21T01:01:49.988Z,59.65
2023-01-21T01:04:18.290Z,60.04
2023-01-21T01:06:47.950Z,61.09
2023-01-21T01:09:16.003Z,60.19
2023-01-21T01:11:46.654Z,60.87
2023-01-21T01:14:14.527Z,60.32
2023-01-21T01:16:42.754Z,60.78
2023-01-21T01:19:11.728Z,59.90
2023-01-21T01:21:40.004Z,61.08
2023-01-21T01:24:10.957Z,61.77
2023-01-21T01:26:41.836Z,61.15
2023-01-21T01:29:13.004Z,60.79
2023-01-21T01:31:44.258Z,60.19
2023-01-21T01:34:14.927Z,60.56
2023-01-21T01:36:43.193Z,61.36
2023-01-21T01:39:14.671Z,59.94
2023-01-21T01:41:47.921Z,61.27
2023-01-21T01:44:55.931Z,60.68
2023-01-21T01:47:26.441Z,61.46
2023-01-21T01:49:55.013Z,62.29
2023-01-21T01:52:23.052Z,62.11
2023-01-21T01:54:55.110Z,60.58
2023-01-21T01:57:26.679Z,60.51
2023-01-21T01:59:57.042Z,61.47
2023-01-21T02:02:27.308Z,61.34
2023-01-21T02:04:56.810Z,60.81
2023-01-21T02:07:25.787Z,61.29
2023-01-21T02:09:56.212Z,62.61
2023-01-21T02:12:27.250Z,62.52
2023-01-21T02:14:58.065Z,61.24
2023-01-21T02:17:37.164Z,61.95
2023-01-21T02:20:29.911Z,60.21
2023-01-21T02:23:02.939Z,58.81
2023-01-21T02:26:05.366Z,61.75
2023-01-21T02:29:01.742Z,61.30
2023-01-21T02:31:55.680Z,60.26
2023-01-21T02:34:46.378Z,60.25
2023-01-21T02:37:18.150Z,59.26
2023-01-21T02:40:11.845Z,58.48
2023-01-21T02:42:45.096Z,58.39
2023-01-21T02:45:31.337Z,59.04
2023-01-21T02:48:06.190Z,59.80
2023-01-21T02:50:37.407Z,59.39
2023-01-21T02:53:07.597Z,59.42
2023-01-21T02:55:37.658Z,58.89
2023-01-21T02:58:07.371Z,60.28
2023-01-21T03:00:48.416Z,60.73
2023-01-21T03:03:24.258Z,61.88
2023-01-21T03:06:20.052Z,61.38
2023-01-21T03:08:54.105Z,60.95
2023-01-21T03:11:23.167Z,59.69
2023-01-21T03:14:10.987Z,59.99
2023-01-21T03:16:59.981Z,61.98
2023-01-21T03:19:34.080Z,62.61
2023-01-21T03:22:10.168Z,61.27
2023-01-21T03:24:41.946Z,59.59
2023-01-21T03:27:11.218Z,60.53
2023-01-21T03:29:42.259Z,61.24
2023-01-21T03:32:16.839Z,62.20
2023-01-21T03:34:48.139Z,63.11
2023-01-21T03:37:22.785Z,61.85
2023-01-21T03:39:59.432Z,61.16
2023-01-21T03:42:27.856Z,61.59
2023-01-21T03:44:59.204Z,64.78
2023-01-21T03:47:31.781Z,64.03
2023-01-21T03:50:01.670Z,61.53
2023-01-21T03:52:32.854Z,61.60
2023-01-21T03:55:03.813Z,61.22
2023-01-21T03:57:35.615Z,62.60
2023-01-21T04:00:05.909Z,63.01
2023-01-21T04:02:34.199Z,64.45
2023-01-21T04:05:05.057Z,65.17
2023-01-21T04:07:35.502Z,63.73
2023-01-21T04:10:03.428Z,61.52
2023-01-21T04:12:36.381Z,60.14
2023-01-21T04:15:07.589Z,60.46
2023-01-21T04:17:35.530Z,60.11
2023-01-21T04:20:03.866Z,60.70
2023-01-21T04:22:38.995Z,61.21
2023-01-21T04:25:07.343Z,61.67
2023-01-21T04:27:38.476Z,62.54
2023-01-21T04:30:09.664Z,61.02
2023-01-21T04:32:42.923Z,59.62
2023-01-21T04:35:11.134Z,61.89
2023-01-21T04:37:40.384Z,61.65
2023-01-21T04:40:13.747Z,60.10
2023-01-21T04:42:43.661Z,61.79
2023-01-21T04:45:12.378Z,61.93
2023-01-21T04:47:42.408Z,60.56
2023-01-21T04:50:14.423Z,61.70
2023-01-21T04:52:46.601Z,60.88
2023-01-21T04:55:14.671Z,60.79
2023-01-21T04:57:45.546Z,61.46
2023-01-21T05:00:16.764Z,61.21
2023-01-21T05:02:44.863Z,61.23
2023-01-21T05:05:14.950Z,61.22
2023-01-21T05:07:53.930Z,60.22
2023-01-21T05:10:24.603Z,61.00
2023-01-21T05:12:55.039Z,62.63
2023-01-21T05:15:25.247Z,61.55
2023-01-21T05:17:54.655Z,62.74
2023-01-21T05:20:23.674Z,62.84
2023-01-21T05:22:57.622Z,62.62
2023-01-21T05:25:27.757Z,64.47
2023-01-21T05:27:56.146Z,64.66
2023-01-21T05:30:24.439Z,65.97
2023-01-21T05:32:53.175Z,65.52
2023-01-21T05:35:22.091Z,66.76
2023-01-21T05:37:52.467Z,67.57
2023-01-21T05:40:24.901Z,67.36
2023-01-21T05:42:53.242Z,68.15
2023-01-21T05:45:23.721Z,69.32
2023-01-21T05:47:51.891Z,70.12
2023-01-21T05:50:21.595Z,70.92
2023-01-21T05:52:54.074Z,72.39
2023-01-21T05:55:26.007Z,71.56
2023-01-21T05:57:53.760Z,73.32
2023-01-21T06:00:22.402Z,74.80
2023-01-21T06:02:50.362Z,74.38
2023-01-21T06:05:18.710Z,76.49
2023-01-21T06:07:49.484Z,77.33
2023-01-21T06:10:21.073Z,77.50
2023-01-21T06:12:53.400Z,76.93
2023-01-21T06:15:26.011Z,76.94
2023-01-21T06:17:55.839Z,76.39
2023-01-21T06:20:23.623Z,75.96
2023-01-21T06:22:58.669Z,76.49
2023-01-21T06:25:26.758Z,76.75
2023-01-21T06:28:02.826Z,78.08
2023-01-21T06:30:32.484Z,78.08
2023-01-21T06:33:00.447Z,76.26
2023-01-21T06:35:28.425Z,76.83
2023-01-21T06:37:56.497Z,77.09
2023-01-21T06:40:24.352Z,77.19
2023-01-21T06:42:53.817Z,77.43
2023-01-21T06:45:23.259Z,76.90
2023-01-21T06:47:52.290Z,75.93
2023-01-21T06:50:25.430Z,74.56
2023-01-21T06:52:56.294Z,74.46
2023-01-21T06:55:24.446Z,75.45
2023-01-21T06:57:52.444Z,74.86
2023-01-21T07:00:23.057Z,76.37
2023-01-21T07:03:00.800Z,76.45
2023-01-21T07:05:30.473Z,76.50
2023-01-21T07:07:59.730Z,77.19
2023-01-21T07:10:27.979Z,76.66
2023-01-21T07:12:56.024Z,76.58
2023-01-21T07:15:31.043Z,75.60
2023-01-21T07:18:03.099Z,74.84
2023-01-21T07:20:35.490Z,75.71
2023-01-21T07:23:03.906Z,75.25
2023-01-21T07:25:36.218Z,75.11
2023-01-21T07:28:04.426Z,74.69
2023-01-21T07:30:32.883Z,73.56
2023-01-21T07:33:07.460Z,74.72
2023-01-21T07:35:37.644Z,74.01
2023-01-21T07:38:05.672Z,75.12
2023-01-21T07:40:33.618Z,74.72
2023-01-21T07:43:01.505Z,75.77
2023-01-21T07:45:29.485Z,76.55
2023-01-21T07:47:57.717Z,76.91
2023-01-21T07:50:27.627Z,76.95
2023-01-21T07:52:55.790Z,77.82
2023-01-21T07:55:23.770Z,78.87
2023-01-21T07:57:54.402Z,79.16
2023-01-21T08:00:23.796Z,80.69
2023-01-21T08:02:55.664Z,80.02
2023-01-21T08:05:24.919Z,80.81
2023-01-21T08:07:55.763Z,82.53
2023-01-21T08:10:24.596Z,81.61
2023-01-21T08:12:55.010Z,80.32
2023-01-21T08:15:23.154Z,80.25
2023-01-21T08:17:54.802Z,79.90
2023-01-21T08:20:23.775Z,78.92
2023-01-21T08:22:51.982Z,79.20
2023-01-21T08:25:21.357Z,78.09
2023-01-21T08:27:49.434Z,77.55
2023-01-21T08:30:19.242Z,76.75
2023-01-21T08:32:48.458Z,78.27
2023-01-21T08:35:16.779Z,77.79
2023-01-21T08:37:47.938Z,77.41
2023-01-21T08:40:18.619Z,77.91
2023-01-21T08:42:47.903Z,77.41
2023-01-21T08:45:19.190Z,76.91
2023-01-21T08:47:48.708Z,76.71
2023-01-21T08:50:20.506Z,76.90
2023-01-21T08:52:52.367Z,76.45
2023-01-21T08:55:26.705Z,76.46
2023-01-21T08:57:56.607Z,75.17
2023-01-21T09:00:25.402Z,74.05
2023-01-21T09:02:53.687Z,72.25
2023-01-21T09:05:22.290Z,73.47
2023-01-21T09:07:53.117Z,73.99
2023-01-21T09:10:34.879Z,75.44
2023-01-21T09:13:10.921Z,74.16
2023-01-21T09:15:42.013Z,74.01
2023-01-21T09:18:11.274Z,74.13
2023-01-21T09:20:45.084Z,73.49
2023-01-21T09:23:34.928Z,73.53
2023-01-21T09:26:05.818Z,74.02
2023-01-21T09:28:38.688Z,74.44
2023-01-21T09:31:09.010Z,73.79
2023-01-21T09:33:42.417Z,72.79
2023-01-21T09:36:15.851Z,73.16
2023-01-21T09:38:46.471Z,73.09
2023-01-21T09:41:28.357Z,73.12
2023-01-21T09:44:05.164Z,73.11
2023-01-21T09:46:42.824Z,72.53
2023-01-21T09:49:20.899Z,73.13
2023-01-21T09:51:54.693Z,73.52
2023-01-21T09:54:27.772Z,74.35
2023-01-21T09:57:07.563Z,74.71
2023-01-21T09:59:52.072Z,76.08
2023-01-21T10:02:29.910Z,76.32
2023-01-21T10:05:08.950Z,75.69
2023-01-21T10:07:40.011Z,74.67
2023-01-21T10:10:16.398Z,74.52
2023-01-21T10:13:15.621Z,74.75
2023-01-21T10:15:51.151Z,74.55
2023-01-21T10:18:24.433Z,74.94
2023-01-21T10:20:57.635Z,75.58
2023-01-21T10:23:34.983Z,75.60
2023-01-21T10:26:06.500Z,75.28
2023-01-21T10:28:36.121Z,75.89
2023-01-21T10:31:09.833Z,75.83
2023-01-21T10:33:38.266Z,76.04
2023-01-21T10:36:29.318Z,76.40
2023-01-21T10:39:05.814Z,76.73
2023-01-21T10:41:53.402Z,76.03
2023-01-21T10:44:27.104Z,75.34
2023-01-21T10:47:07.647Z,76.33
2023-01-21T10:49:51.629Z,75.94
2023-01-21T10:52:25.207Z,75.69
2023-01-21T10:55:04.327Z,76.19
2023-01-21T11:00:36.991Z,75.45
2023-01-21T11:03:13.118Z,74.47
2023-01-21T11:05:41.656Z,74.36
2023-01-21T11:08:18.458Z,74.41
2023-01-21T11:10:50.546Z,76.44
2023-01-21T11:13:18.470Z,78.40
2023-01-21T11:15:48.502Z,78.29
2023-01-21T11:18:44.815Z,79.22
2023-01-21T11:21:19.144Z,78.33
2023-01-21T11:23:54.615Z,78.07
2023-01-21T11:26:25.707Z,77.78
2023-01-21T11:29:11.094Z,76.86
2023-01-21T11:31:42.610Z,77.32
2023-01-21T11:34:18.541Z,77.15
2023-01-21T11:37:01.082Z,76.86
2023-01-21T11:39:30.197Z,76.42
2023-01-21T11:41:59.445Z,76.81
2023-01-21T11:44:27.632Z,78.30
2023-01-21T11:47:00.856Z,78.38
2023-01-21T11:49:31.797Z,76.39
2023-01-21T11:52:20.390Z,78.45
2023-01-21T11:54:48.721Z,78.33
2023-01-21T11:57:27.261Z,78.75
2023-01-21T12:00:00.373Z,79.67
2023-01-21T12:02:31.404Z,78.62
2023-01-21T12:05:05.394Z,78.14
2023-01-21T12:07:39.723Z,78.21
2023-01-21T12:10:18.923Z,77.80
2023-01-21T12:12:56.954Z,77.55
2023-01-21T12:15:35.443Z,77.67
2023-01-21T12:18:13.176Z,77.86
2023-01-21T12:20:51.524Z,77.42
2023-01-21T12:23:42.309Z,79.06
2023-01-21T12:26:22.668Z,78.50
2023-01-21T12:29:12.508Z,79.57
2023-01-21T12:31:43.816Z,79.83
2023-01-21T12:34:21.339Z,78.82
2023-01-21T12:36:57.348Z,80.20
2023-01-21T12:39:30.253Z,78.92
2023-01-21T12:42:05.655Z,79.61
2023-01-21T12:44:40.155Z,78.90
2023-01-21T12:47:14.194Z,78.60
2023-01-21T12:49:57.545Z,79.32
2023-01-21T12:52:33.173Z,78.49
2023-01-21T12:55:06.685Z,77.67
2023-01-21T12:57:42.474Z,78.79
2023-01-21T13:00:20.836Z,79.51
2023-01-21T13:02:58.521Z,78.17
2023-01-21T13:05:37.145Z,78.48
2023-01-21T13:08:22.332Z,78.71
2023-01-21T13:10:52.337Z,77.93
2023-01-21T13:13:23.391Z,80.27
2023-01-21T13:15:57.601Z,80.26
2023-01-21T13:18:33.803Z,81.02
2023-01-21T13:21:14.926Z,81.49
2023-01-21T13:23:46.847Z,81.81
2023-01-21T13:26:20.762Z,82.07
2023-01-21T13:28:54.139Z,84.06
2023-01-21T13:31:30.156Z,82.96
2023-01-21T13:34:05.001Z,82.84
2023-01-21T13:36:44.567Z,82.49
2023-01-21T13:39:21.099Z,83.40
2023-01-21T13:41:59.932Z,83.80
2023-01-21T13:44:59.484Z,84.56
2023-01-21T13:47:54.662Z,83.61
2023-01-21T13:50:34.753Z,83.47
2023-01-21T13:53:20.430Z,83.27
2023-01-21T13:56:02.989Z,82.86
2023-01-21T13:58:40.422Z,82.58
2023-01-21T14:01:12.492Z,82.48
2023-01-21T14:03:49.654Z,82.90
2023-01-21T14:06:21.476Z,83.95
2023-01-21T14:08:54.831Z,83.13
2023-01-21T14:11:30.988Z,83.01
2023-01-21T14:14:49.315Z,83.29
2023-01-21T14:18:03.552Z,82.73
2023-01-21T14:20:51.280Z,82.76
2023-01-21T14:23:35.940Z,83.67
2023-01-21T14:26:16.717Z,82.38
2023-01-21T14:28:55.179Z,83.76
2023-01-21T14:31:33.940Z,84.32
2023-01-21T14:34:06.155Z,83.71
2023-01-21T14:36:38.184Z,83.17
2023-01-21T14:39:11.325Z,82.82
2023-01-21T14:42:03.872Z,83.18
2023-01-21T14:44:47.810Z,81.33
2023-01-21T14:47:23.057Z,82.46
2023-01-21T14:49:52.851Z,82.38
2023-01-21T14:52:29.205Z,83.74
2023-01-21T14:55:00.844Z,82.48
2023-01-21T14:57:33.741Z,82.98
2023-01-21T15:00:20.043Z,83.16
2023-01-21T15:02:53.320Z,84.01
2023-01-21T15:05:25.939Z,83.38
2023-01-21T15:08:04.576Z,83.99
2023-01-21T15:10:34.401Z,83.91
2023-01-21T15:13:04.430Z,82.39
2023-01-21T15:15:38.079Z,81.69
2023-01-21T15:18:26.301Z,81.60
2023-01-21T15:20:59.777Z,82.56
2023-01-21T15:23:45.441Z,83.43
2023-01-21T15:26:35.859Z,82.59
2023-01-21T15:29:38.137Z,81.37
2023-01-21T15:32:29.883Z,81.36
2023-01-21T15:35:05.123Z,80.95
2023-01-21T15:37:37.353Z,80.00
2023-01-21T15:40:16.667Z,79.05
2023-01-21T15:42:51.990Z,80.33
2023-01-21T15:45:29.913Z,81.52
2023-01-21T15:48:36.464Z,80.37
2023-01-21T15:51:20.610Z,79.37
2023-01-21T15:54:04.716Z,79.51
2023-01-21T15:56:50.492Z,80.00
2023-01-21T15:59:36.419Z,80.40
2023-01-21T16:02:19.986Z,79.97
2023-01-21T16:04:59.401Z,81.51
2023-01-21T16:07:34.829Z,80.94
2023-01-21T16:10:10.816Z,80.21
2023-01-21T16:12:49.012Z,79.79
2023-01-21T16:15:22.555Z,80.66
2023-01-21T16:18:03.200Z,80.26
2023-01-21T16:20:32.916Z,79.66
2023-01-21T16:23:02.883Z,79.71
2023-01-21T16:25:34.318Z,79.18
2023-01-21T16:28:02.210Z,79.24
2023-01-21T16:30:32.020Z,78.95
2023-01-21T16:33:16.338Z,78.52
2023-01-21T16:35:50.273Z,78.43
2023-01-21T16:38:19.743Z,78.53
2023-01-21T16:40:49.713Z,78.63
2023-01-21T16:43:28.896Z,78.55
2023-01-21T16:46:04.929Z,78.27
2023-01-21T16:48:37.066Z,78.23
2023-01-21T16:51:13.951Z,78.05
2023-01-21T16:53:44.539Z,78.07
2023-01-21T16:56:26.222Z,78.96
2023-01-21T16:58:55.789Z,79.20
2023-01-21T17:01:29.102Z,78.94
2023-01-21T17:03:57.103Z,78.68
2023-01-21T17:06:31.144Z,78.73
2023-01-21T17:09:01.422Z,77.63
2023-01-21T17:11:31.426Z,78.39
2023-01-21T17:14:00.552Z,77.32
2023-01-21T17:16:32.976Z,78.45
2023-01-21T17:19:02.705Z,78.00
2023-01-21T17:21:38.160Z,77.67
2023-01-21T17:24:08.818Z,77.67
2023-01-21T17:26:43.907Z,78.07
2023-01-21T17:29:21.565Z,78.44
2023-01-21T17:31:56.796Z,78.87
2023-01-21T17:34:25.968Z,78.85
2023-01-21T17:36:56.488Z,78.50
2023-01-21T17:39:58.715Z,78.44
2023-01-21T17:42:32.504Z,78.90
2023-01-21T17:45:04.191Z,79.05
2023-01-21T17:47:34.315Z,79.13
2023-01-21T17:50:23.840Z,79.06
2023-01-21T17:52:54.609Z,77.80
2023-01-21T17:55:34.095Z,77.67
2023-01-21T17:58:05.556Z,78.69
2023-01-21T18:00:41.113Z,78.15
2023-01-21T18:03:11.822Z,78.24
2023-01-21T18:05:45.329Z,76.67
2023-01-21T18:08:20.493Z,77.06
2023-01-21T18:10:50.943Z,75.87
2023-01-21T18:13:21.985Z,74.57
2023-01-21T18:15:55.028Z,75.58
2023-01-21T18:18:31.527Z,76.46
2023-01-21T18:20:59.757Z,76.60
2023-01-21T18:23:30.006Z,79.15
2023-01-21T18:26:07.227Z,78.24
2023-01-21T18:28:38.852Z,77.96
2023-01-21T18:31:07.339Z,78.09
2023-01-21T18:33:35.206Z,78.69
2023-01-21T18:36:03.419Z,77.05
2023-01-21T18:38:35.762Z,78.54
2023-01-21T18:41:04.605Z,79.61
2023-01-21T18:43:32.954Z,81.30
2023-01-21T18:46:00.797Z,82.49
2023-01-21T18:48:33.418Z,81.42
2023-01-21T18:51:04.780Z,82.07
2023-01-21T18:53:34.881Z,84.70
2023-01-21T18:56:08.942Z,85.83
2023-01-21T18:58:37.871Z,86.78
2023-01-21T19:01:21.388Z,84.96
2023-01-21T19:03:51.139Z,83.49
2023-01-21T19:06:19.354Z,84.40
2023-01-21T19:08:51.276Z,83.87
2023-01-21T19:11:24.800Z,85.35
2023-01-21T19:13:53.174Z,84.99
2023-01-21T19:16:27.776Z,85.38
2023-01-21T19:18:57.570Z,84.89
2023-01-21T19:21:25.591Z,84.96
2023-01-21T19:23:54.829Z,84.07
2023-01-21T19:26:23.545Z,84.12
2023-01-21T19:28:56.221Z,84.87
2023-01-21T19:31:30.331Z,86.75
2023-01-21T19:33:58.753Z,87.76
2023-01-21T19:36:26.916Z,87.28
2023-01-21T19:38:58.147Z,87.15
2023-01-21T19:41:29.147Z,87.05
2023-01-21T19:43:57.041Z,87.35
2023-01-21T19:46:28.941Z,88.11
2023-01-21T19:48:59.500Z,87.03
2023-01-21T19:51:30.731Z,87.55
2023-01-21T19:54:01.411Z,86.81
2023-01-21T19:56:29.324Z,87.89
2023-01-21T19:58:57.286Z,84.63
2023-01-21T20:01:25.335Z,86.10
2023-01-21T20:04:00.674Z,85.45
2023-01-21T20:06:31.507Z,86.49
2023-01-21T20:09:01.818Z,88.35
2023-01-21T20:11:33.003Z,86.93
2023-01-21T20:14:00.836Z,87.85
2023-01-21T20:16:31.418Z,87.54
2023-01-21T20:19:03.518Z,87.00
2023-01-21T20:21:34.127Z,86.81
2023-01-21T20:24:05.619Z,88.10
2023-01-21T20:26:33.980Z,89.63
2023-01-21T20:29:07.083Z,90.80
2023-01-21T20:31:35.634Z,91.56
2023-01-21T20:34:10.009Z,90.95
2023-01-21T20:36:39.298Z,91.59
2023-01-21T20:39:12.238Z,90.73
2023-01-21T20:41:40.996Z,91.46
2023-01-21T20:44:12.046Z,91.08
2023-01-21T20:46:48.071Z,91.07
2023-01-21T20:49:18.632Z,92.32
2023-01-21T20:51:53.166Z,91.73
2023-01-21T20:54:24.956Z,91.41
2023-01-21T20:57:04.866Z,92.20
2023-01-21T20:59:35.407Z,90.60
2023-01-21T21:02:03.566Z,90.51
2023-01-21T21:04:31.742Z,90.22
2023-01-21T21:07:03.582Z,89.96
2023-01-21T21:09:37.571Z,90.55
2023-01-21T21:12:07.118Z,91.30
2023-01-21T21:14:38.944Z,90.38
2023-01-21T21:17:11.435Z,90.23
2023-01-21T21:19:41.934Z,90.32
2023-01-21T21:22:09.914Z,89.04
2023-01-21T21:24:41.682Z,90.05
2023-01-21T21:27:12.688Z,89.54
2023-01-21T21:29:45.196Z,88.98
2023-01-21T21:32:13.634Z,87.64
2023-01-21T21:34:49.151Z,88.05
2023-01-21T21:37:18.654Z,89.29
2023-01-21T21:39:47.912Z,90.27
2023-01-21T21:42:35.827Z,88.99
2023-01-21T21:45:06.679Z,89.76
2023-01-21T21:47:51.768Z,90.65
2023-01-21T21:50:28.647Z,90.04
2023-01-21T21:52:57.930Z,90.44
2023-01-21T21:55:27.038Z,90.81
2023-01-21T21:57:57.257Z,91.52
2023-01-21T22:00:27.332Z,91.51
2023-01-21T22:03:13.215Z,93.11
2023-01-21T22:05:43.539Z,92.05
2023-01-21T22:08:18.191Z,90.45
2023-01-21T22:10:50.329Z,91.78
2023-01-21T22:13:21.087Z,90.74
2023-01-21T22:15:54.844Z,90.66
2023-01-21T22:18:22.702Z,91.65
2023-01-21T22:20:56.402Z,91.36
2023-01-21T22:23:27.824Z,92.81
2023-01-21T22:25:57.367Z,93.29
2023-01-21T22:28:25.832Z,93.14
2023-01-21T22:30:53.874Z,92.28
2023-01-21T22:33:25.676Z,92.75
2023-01-21T22:35:59.622Z,91.59
2023-01-21T22:38:28.498Z,92.08
2023-01-21T22:40:58.979Z,90.97
2023-01-21T22:43:27.156Z,92.60
2023-01-21T22:45:58.657Z,91.87
2023-01-21T22:48:28.059Z,92.06
2023-01-21T22:50:57.301Z,92.24
2023-01-21T22:53:25.854Z,93.60
2023-01-21T22:55:56.123Z,93.70
2023-01-21T22:58:25.616Z,93.46
2023-01-21T23:00:54.436Z,93.68
2023-01-21T23:03:22.870Z,92.67
2023-01-21T23:05:53.475Z,91.69
2023-01-21T23:08:30.119Z,91.63
2023-01-21T23:11:04.004Z,93.29
2023-01-21T23:13:34.199Z,92.47
2023-01-21T23:16:09.739Z,91.06
2023-01-21T23:18:41.406Z,92.51
2023-01-21T23:21:10.524Z,92.74
2023-01-21T23:23:39.179Z,91.46
2023-01-21T23:26:10.212Z,91.97
2023-01-21T23:28:41.321Z,92.79
2023-01-21T23:31:10.827Z,92.50
2023-01-21T23:33:41.077Z,92.21
2023-01-21T23:36:11.324Z,90.80
2023-01-21T23:38:42.114Z,91.91
2023-01-21T23:41:11.662Z,90.90
2023-01-21T23:43:40.993Z,90.20
2023-01-21T23:46:12.357Z,91.21
2023-01-21T23:48:40.563Z,90.77
2023-01-21T23:51:23.148Z,89.81
2023-01-21T23:53:51.027Z,91.35
2023-01-21T23:56:22.080Z,90.71
2023-01-21T23:58:53.265Z,88.49
